createdAt,value
2022-12-18T00:04:39.818Z,69.32
2022-12-18T00:09:41.625Z,69.22
2022-12-18T00:14:43.524Z,69.22
2022-12-18T00:19:45.391Z,69.19
2022-12-18T00:24:47.217Z,69.48
2022-12-18T00:29:50.174Z,69.65
2022-12-18T00:34:52.037Z,69.64
2022-12-18T00:39:53.847Z,69.59
2022-12-18T00:44:55.902Z,69.71
2022-12-18T00:49:57.708Z,69.45
2022-12-18T00:55:04.482Z,69.22
2022-12-18T01:00:11.112Z,69.48
2022-12-18T01:05:14.481Z,69.24
2022-12-18T01:10:16.337Z,69.43
2022-12-18T01:15:19.238Z,69.25
2022-12-18T01:20:21.165Z,69.35
2022-12-18T01:25:22.994Z,69.08
2022-12-18T01:30:26.296Z,69.03
2022-12-18T01:35:28.653Z,68.99
2022-12-18T01:40:30.454Z,68.85
2022-12-18T01:45:33.167Z,68.79
2022-12-18T01:50:39.697Z,69.10
2022-12-18T01:55:50.164Z,68.77
2022-12-18T02:00:52.056Z,68.75
2022-12-18T02:06:18.424Z,68.91
2022-12-18T02:11:24.496Z,68.78
2022-12-18T02:16:52.730Z,68.79
2022-12-18T02:22:35.541Z,68.68
2022-12-18T02:27:40.898Z,68.48
2022-12-18T02:32:49.781Z,68.39
2022-12-18T02:37:56.664Z,68.56
2022-12-18T02:43:25.098Z,68.51
2022-12-18T02:48:32.112Z,68.31
2022-12-18T02:53:54.479Z,68.30
2022-12-18T02:59:07.520Z,68.31
2022-12-18T03:04:48.704Z,68.11
2022-12-18T03:09:55.184Z,68.15
2022-12-18T03:15:17.470Z,68.13
2022-12-18T03:20:25.198Z,67.92
2022-12-18T03:25:29.258Z,68.19
2022-12-18T03:30:33.793Z,68.09
2022-12-18T03:35:41.279Z,68.09
2022-12-18T03:41:07.654Z,67.83
2022-12-18T03:46:42.394Z,67.82
2022-12-18T03:52:03.152Z,68.00
2022-12-18T03:57:15.032Z,67.90
2022-12-18T04:02:19.223Z,67.57
2022-12-18T04:07:22.937Z,67.82
2022-12-18T04:12:27.322Z,67.70
2022-12-18T04:17:29.309Z,67.75
2022-12-18T04:22:32.857Z,67.30
2022-12-18T04:27:35.542Z,67.69
2022-12-18T04:32:39.782Z,67.70
2022-12-18T04:37:42.429Z,67.41
2022-12-18T04:42:44.419Z,67.67
2022-12-18T04:47:46.277Z,67.66
2022-12-18T04:52:48.126Z,67.69
2022-12-18T04:57:49.996Z,67.57
2022-12-18T05:02:51.947Z,67.52
2022-12-18T05:07:53.852Z,67.39
2022-12-18T05:12:59.109Z,67.45
2022-12-18T05:18:03.709Z,67.30
2022-12-18T05:23:05.484Z,67.55
2022-12-18T05:28:07.266Z,67.40
2022-12-18T05:33:09.216Z,67.49
2022-12-18T05:38:11.244Z,67.15
2022-12-18T05:43:17.913Z,67.46
2022-12-18T05:48:23.350Z,67.20
2022-12-18T05:53:25.202Z,66.90
2022-12-18T05:58:26.995Z,66.87
2022-12-18T06:03:33.691Z,66.85
2022-12-18T06:08:35.956Z,67.00
2022-12-18T06:13:39.868Z,66.75
2022-12-18T06:18:41.804Z,67.20
2022-12-18T06:23:43.828Z,67.19
2022-12-18T06:28:45.635Z,67.08
2022-12-18T06:33:47.670Z,67.00
2022-12-18T06:38:50.008Z,66.82
2022-12-18T06:43:55.583Z,66.81
2022-12-18T06:49:00.304Z,66.97
2022-12-18T06:54:02.484Z,67.09
2022-12-18T06:59:04.414Z,67.07
2022-12-18T07:04:06.184Z,67.06
2022-12-18T07:09:07.945Z,67.08
2022-12-18T07:14:09.993Z,67.11
2022-12-18T07:19:11.774Z,66.85
2022-12-18T07:24:14.024Z,67.18
2022-12-18T07:29:15.837Z,66.94
2022-12-18T07:34:17.925Z,67.10
2022-12-18T07:39:19.861Z,67.21
2022-12-18T07:44:21.629Z,67.20
2022-12-18T07:49:23.338Z,67.36
2022-12-18T07:54:25.926Z,67.16
2022-12-18T07:59:28.798Z,67.25
2022-12-18T08:04:30.597Z,67.30
2022-12-18T08:09:32.435Z,67.42
2022-12-18T08:14:34.204Z,67.64
2022-12-18T08:19:36.150Z,67.64
2022-12-18T08:24:37.984Z,67.65
2022-12-18T08:29:39.788Z,67.58
2022-12-18T08:34:41.548Z,67.89
2022-12-18T08:39:43.254Z,68.04
2022-12-18T08:44:45.032Z,68.18
2022-12-18T08:49:46.839Z,68.53
2022-12-18T08:54:48.638Z,68.43
2022-12-18T08:59:50.645Z,68.18
2022-12-18T09:04:57.097Z,68.72
2022-12-18T09:09:59.454Z,68.72
2022-12-18T09:15:01.181Z,68.45
2022-12-18T09:20:03.135Z,69.03
2022-12-18T09:25:08.934Z,69.00
2022-12-18T09:30:11.388Z,69.59
2022-12-18T09:35:13.224Z,69.20
2022-12-18T09:40:21.997Z,69.37
2022-12-18T09:45:24.666Z,69.26
2022-12-18T09:50:40.412Z,69.56
2022-12-18T09:55:45.934Z,69.70
2022-12-18T10:00:48.406Z,69.62
2022-12-18T10:05:56.165Z,69.94
2022-12-18T10:11:11.609Z,69.94
2022-12-18T10:16:25.451Z,70.18
2022-12-18T10:21:54.857Z,70.48
2022-12-18T10:27:13.994Z,70.54
2022-12-18T10:32:22.107Z,70.67
2022-12-18T10:37:26.877Z,70.70
2022-12-18T10:42:28.607Z,70.70
2022-12-18T10:47:30.610Z,70.67
2022-12-18T10:52:32.434Z,70.81
2022-12-18T10:57:39.707Z,71.08
2022-12-18T11:02:41.740Z,71.06
2022-12-18T11:07:51.759Z,71.44
2022-12-18T11:12:53.658Z,71.36
2022-12-18T11:17:55.937Z,71.49
2022-12-18T11:23:01.154Z,71.77
2022-12-18T11:28:07.423Z,71.60
2022-12-18T11:33:27.253Z,71.77
2022-12-18T11:38:35.791Z,71.87
2022-12-18T11:43:51.656Z,71.84
2022-12-18T11:48:55.430Z,71.92
2022-12-18T11:53:57.195Z,71.89
2022-12-18T11:59:29.489Z,71.89
2022-12-18T12:04:44.793Z,71.96
2022-12-18T12:09:55.326Z,71.79
2022-12-18T12:15:11.593Z,71.80
2022-12-18T12:20:46.054Z,71.98
2022-12-18T12:25:53.839Z,71.85
2022-12-18T12:31:26.275Z,71.91
2022-12-18T12:36:41.963Z,71.95
2022-12-18T12:42:05.095Z,71.79
2022-12-18T12:47:33.536Z,71.80
2022-12-18T12:52:43.756Z,71.69
2022-12-18T12:58:09.245Z,71.67
2022-12-18T13:03:28.918Z,71.78
2022-12-18T13:08:33.977Z,71.62
2022-12-18T13:13:50.902Z,71.51
2022-12-18T13:19:00.896Z,71.43
2022-12-18T13:24:24.337Z,71.40
2022-12-18T13:29:46.283Z,71.38
2022-12-18T13:34:48.627Z,71.56
2022-12-18T13:39:50.522Z,71.19
2022-12-18T13:44:52.757Z,71.20
2022-12-18T13:49:55.978Z,71.02
2022-12-18T13:55:00.604Z,71.15
2022-12-18T14:00:29.203Z,71.06
2022-12-18T14:05:33.352Z,71.06
2022-12-18T14:10:47.886Z,71.10
2022-12-18T14:15:51.954Z,71.01
2022-12-18T14:20:57.968Z,71.01
2022-12-18T14:26:05.784Z,71.02
2022-12-18T14:31:20.562Z,70.90
2022-12-18T14:36:29.595Z,70.82
2022-12-18T14:41:32.358Z,70.88
2022-12-18T14:46:37.786Z,70.99
2022-12-18T14:51:39.716Z,71.14
2022-12-18T14:56:48.554Z,71.02
2022-12-18T15:02:18.340Z,71.08
2022-12-18T15:07:22.815Z,70.95
2022-12-18T15:12:40.904Z,71.42
2022-12-18T15:17:42.548Z,71.21
2022-12-18T15:22:44.298Z,70.99
2022-12-18T15:27:48.468Z,71.27
2022-12-18T15:32:51.348Z,71.20
2022-12-18T15:37:53.546Z,71.32
2022-12-18T15:43:15.386Z,71.17
2022-12-18T15:48:25.933Z,71.13
2022-12-18T15:53:33.495Z,71.20
2022-12-18T15:58:35.441Z,71.18
2022-12-18T16:03:38.029Z,71.36
2022-12-18T16:08:40.316Z,71.33
2022-12-18T16:13:43.755Z,71.43
2022-12-18T16:18:45.724Z,71.47
2022-12-18T16:23:47.765Z,71.60
2022-12-18T16:28:49.524Z,71.47
2022-12-18T16:34:13.805Z,71.89
2022-12-18T16:39:15.740Z,71.48
2022-12-18T16:44:17.800Z,71.69
2022-12-18T16:49:20.234Z,71.57
2022-12-18T16:54:22.214Z,71.77
2022-12-18T16:59:24.015Z,71.66
2022-12-18T17:04:25.795Z,71.62
2022-12-18T17:09:27.728Z,71.62
2022-12-18T17:14:29.933Z,71.72
2022-12-18T17:19:31.750Z,71.89
2022-12-18T17:24:35.359Z,71.81
2022-12-18T17:29:41.161Z,71.89
2022-12-18T17:34:47.960Z,71.69
2022-12-18T17:39:49.749Z,71.82
2022-12-18T17:44:51.573Z,71.76
2022-12-18T17:49:53.652Z,71.89
2022-12-18T17:54:57.582Z,71.73
2022-12-18T17:59:59.339Z,71.90
2022-12-18T18:05:01.145Z,71.94
2022-12-18T18:10:03.087Z,72.04
2022-12-18T18:15:05.223Z,71.95
2022-12-18T18:20:07.949Z,71.95
2022-12-18T18:25:10.519Z,72.05
2022-12-18T18:30:13.328Z,72.09
2022-12-18T18:35:44.731Z,72.17
2022-12-18T18:40:37.216Z,72.20
2022-12-18T18:45:39.053Z,72.31
2022-12-18T18:50:44.077Z,72.55
2022-12-18T18:55:51.696Z,72.43
2022-12-18T19:01:16.668Z,72.77
2022-12-18T19:06:24.053Z,72.70
2022-12-18T19:11:45.543Z,72.92
2022-12-18T19:16:47.424Z,73.01
2022-12-18T19:21:50.134Z,72.94
2022-12-18T19:26:52.302Z,73.11
2022-12-18T19:31:57.307Z,73.11
2022-12-18T19:37:00.062Z,73.19
2022-12-18T19:42:02.261Z,73.39
2022-12-18T19:47:04.064Z,73.38
2022-12-18T19:52:05.847Z,73.34
2022-12-18T19:57:11.503Z,73.39
2022-12-18T20:02:14.019Z,72.96
2022-12-18T20:07:16.106Z,73.17
2022-12-18T20:12:18.074Z,73.29
2022-12-18T20:17:20.107Z,73.27
2022-12-18T20:22:22.756Z,73.15
2022-12-18T20:27:25.055Z,72.80
2022-12-18T20:32:26.963Z,72.72
2022-12-18T20:37:31.402Z,72.73
2022-12-18T20:42:33.504Z,72.65
2022-12-18T20:47:35.218Z,72.57
2022-12-18T20:52:36.944Z,72.42
2022-12-18T20:57:39.199Z,72.16
2022-12-18T21:02:41.118Z,72.06
2022-12-18T21:07:43.295Z,71.95
2022-12-18T21:13:00.180Z,71.99
2022-12-18T21:18:05.350Z,71.82
2022-12-18T21:23:16.023Z,71.59
2022-12-18T21:28:18.816Z,71.35
2022-12-18T21:33:20.815Z,71.20
2022-12-18T21:38:22.651Z,70.95
2022-12-18T21:43:43.047Z,70.78
2022-12-18T21:48:44.814Z,70.58
2022-12-18T21:53:47.627Z,70.54
2022-12-18T21:58:56.684Z,70.40
2022-12-18T22:03:59.248Z,70.19
2022-12-18T22:09:01.148Z,70.21
2022-12-18T22:14:02.938Z,69.82
2022-12-18T22:19:04.734Z,69.71
2022-12-18T22:24:10.783Z,69.93
2022-12-18T22:29:37.846Z,69.72
2022-12-18T22:34:39.723Z,69.86
2022-12-18T22:39:41.535Z,69.58
2022-12-18T22:44:43.753Z,69.55
2022-12-18T22:49:45.676Z,69.37
2022-12-18T22:54:47.515Z,69.07
2022-12-18T22:59:50.380Z,68.96
2022-12-18T23:04:52.439Z,68.90
2022-12-18T23:10:00.798Z,68.63
2022-12-18T23:15:04.908Z,68.59
2022-12-18T23:20:07.224Z,68.62
2022-12-18T23:25:09.555Z,68.40
2022-12-18T23:30:11.944Z,68.51
2022-12-18T23:35:15.548Z,68.52
2022-12-18T23:40:18.224Z,68.45
2022-12-18T23:45:20.331Z,68.28
2022-12-18T23:50:29.116Z,67.90
2022-12-18T23:55:32.099Z,68.35
